createdAt,value
2018-08-20T00:00:55.592Z,14.00
2018-08-20T00:03:24.326Z,13.87
2018-08-20T00:05:54.537Z,16.57
2018-08-20T00:08:24.683Z,15.50
2018-08-20T00:10:56.524Z,14.17
2018-08-20T00:13:25.929Z,15.63
2018-08-20T00:15:55.414Z,14.87
2018-08-20T00:18:29.325Z,16.27
2018-08-20T00:20:58.237Z,14.93
2018-08-20T00:23:26.969Z,16.17
2018-08-20T00:25:58.113Z,15.07
2018-08-20T00:28:28.107Z,14.63
2018-08-20T00:30:56.799Z,16.20
2018-08-20T00:33:25.583Z,12.63
2018-08-20T00:35:54.429Z,14.50
2018-08-20T00:38:23.306Z,18.80
2018-08-20T00:40:52.016Z,15.83
2018-08-20T00:43:20.645Z,13.63
2018-08-20T00:45:49.291Z,14.27
2018-08-20T00:48:18.087Z,15.60
2018-08-20T00:50:46.936Z,17.73
2018-08-20T00:53:15.953Z,14.80
2018-08-20T00:55:44.763Z,15.97
2018-08-20T00:58:13.479Z,12.47
2018-08-20T01:00:42.247Z,13.63
2018-08-20T01:03:10.951Z,13.00
2018-08-20T01:05:39.643Z,12.87
2018-08-20T01:08:08.350Z,13.97
2018-08-20T01:10:37.053Z,13.80
2018-08-20T01:13:05.741Z,13.23
2018-08-20T01:15:34.933Z,15.93
2018-08-20T01:18:03.695Z,13.90
2018-08-20T01:20:33.417Z,11.87
2018-08-20T01:23:02.259Z,12.33
2018-08-20T01:25:30.987Z,12.50
2018-08-20T01:27:59.650Z,11.13
2018-08-20T01:30:28.359Z,14.57
2018-08-20T01:33:28.261Z,12.33
2018-08-20T01:35:57.083Z,12.97
2018-08-20T01:38:25.879Z,12.93
2018-08-20T01:40:54.603Z,13.43
2018-08-20T01:43:23.308Z,15.00
2018-08-20T01:45:52.113Z,12.10
2018-08-20T01:48:20.858Z,14.23
2018-08-20T01:50:49.542Z,11.37
2018-08-20T01:53:18.378Z,12.03
2018-08-20T01:55:47.008Z,12.70
2018-08-20T01:58:15.654Z,13.87
2018-08-20T02:00:44.353Z,14.93
2018-08-20T02:03:13.093Z,13.23
2018-08-20T02:05:41.783Z,12.40
2018-08-20T02:08:10.544Z,12.50
2018-08-20T02:10:39.245Z,14.40
2018-08-20T02:13:08.131Z,14.97
2018-08-20T02:15:38.028Z,14.77
2018-08-20T02:18:08.327Z,15.43
2018-08-20T02:20:36.961Z,15.30
2018-08-20T02:23:05.937Z,14.40
2018-08-20T02:25:34.626Z,15.07
2018-08-20T02:28:03.548Z,16.43
2018-08-20T02:30:32.283Z,12.43
2018-08-20T02:33:00.963Z,12.23
2018-08-20T02:35:29.854Z,16.40
2018-08-20T02:37:58.782Z,12.83
2018-08-20T02:40:27.643Z,16.63
2018-08-20T02:42:56.440Z,14.43
2018-08-20T02:45:25.115Z,14.50
2018-08-20T02:47:53.816Z,14.73
2018-08-20T02:50:22.487Z,14.23
2018-08-20T02:52:51.150Z,13.30
2018-08-20T02:55:20.013Z,15.07
2018-08-20T02:57:48.663Z,15.17
2018-08-20T03:00:17.387Z,17.90
2018-08-20T03:02:46.070Z,17.10
2018-08-20T03:05:14.835Z,15.73
2018-08-20T03:07:43.665Z,13.77
2018-08-20T03:10:13.354Z,17.80
2018-08-20T03:12:42.496Z,16.80
2018-08-20T03:15:11.736Z,15.53
2018-08-20T03:17:40.502Z,21.00
2018-08-20T03:20:09.229Z,17.93
2018-08-20T03:22:37.899Z,18.00
2018-08-20T03:25:07.011Z,16.53
2018-08-20T03:27:36.319Z,18.77
2018-08-20T03:30:06.427Z,18.77
2018-08-20T03:32:35.485Z,18.40
2018-08-20T03:35:04.699Z,15.83
2018-08-20T03:37:33.347Z,18.77
2018-08-20T03:40:02.060Z,19.93
2018-08-20T03:42:30.731Z,18.80
2018-08-20T03:44:59.433Z,17.13
2018-08-20T03:47:28.434Z,23.40
2018-08-20T03:49:57.391Z,16.30
2018-08-20T03:52:26.287Z,19.30
2018-08-20T03:54:54.998Z,15.40
2018-08-20T03:57:23.613Z,20.03
2018-08-20T03:59:52.599Z,14.60
2018-08-20T04:02:21.502Z,18.50
2018-08-20T04:04:50.265Z,16.83
2018-08-20T04:07:18.956Z,16.70
2018-08-20T04:09:47.666Z,17.97
2018-08-20T04:12:16.311Z,17.00
2018-08-20T04:14:45.131Z,14.53
2018-08-20T04:17:13.777Z,17.23
2018-08-20T04:19:42.430Z,15.50
2018-08-20T04:22:11.331Z,20.20
2018-08-20T04:24:40.148Z,19.33
2018-08-20T04:27:08.881Z,23.30
2018-08-20T04:29:37.532Z,18.30
2018-08-20T04:32:06.721Z,17.70
2018-08-20T04:34:35.844Z,19.50
2018-08-20T04:37:04.853Z,22.33
2018-08-20T04:39:33.552Z,20.17
2018-08-20T04:42:02.447Z,20.47
2018-08-20T04:44:31.627Z,19.13
2018-08-20T04:47:00.474Z,20.10
2018-08-20T04:49:29.139Z,18.73
2018-08-20T04:51:57.866Z,17.70
2018-08-20T04:54:26.558Z,19.17
2018-08-20T04:56:55.268Z,16.37
2018-08-20T04:59:24.215Z,16.83
2018-08-20T05:01:52.864Z,19.40
2018-08-20T05:04:21.524Z,19.57
2018-08-20T05:06:50.308Z,21.97
2018-08-20T05:09:19.038Z,20.37
2018-08-20T05:11:48.095Z,22.00
2018-08-20T05:14:16.812Z,23.90
2018-08-20T05:16:45.492Z,23.90
2018-08-20T05:19:14.113Z,21.20
2018-08-20T05:21:42.817Z,18.43
2018-08-20T05:24:11.493Z,20.40
2018-08-20T05:26:40.576Z,18.13
2018-08-20T05:29:09.279Z,21.10
2018-08-20T05:31:38.237Z,19.77
2018-08-20T05:34:07.212Z,25.07
2018-08-20T05:36:36.150Z,18.43
2018-08-20T05:39:07.048Z,16.23
2018-08-20T05:41:35.898Z,21.03
2018-08-20T05:44:04.510Z,18.23
2018-08-20T05:46:33.145Z,19.37
2018-08-20T05:49:01.834Z,16.97
2018-08-20T05:51:30.492Z,21.10
2018-08-20T05:53:59.198Z,17.43
2018-08-20T05:56:27.929Z,19.90
2018-08-20T05:58:56.656Z,16.10
2018-08-20T06:01:25.512Z,17.53
2018-08-20T06:03:54.209Z,17.43
2018-08-20T06:06:22.888Z,20.80
2018-08-20T06:08:51.762Z,15.67
2018-08-20T06:11:20.514Z,17.63
2018-08-20T06:13:49.188Z,18.97
2018-08-20T06:16:17.891Z,13.50
2018-08-20T06:18:46.674Z,16.57
2018-08-20T06:21:15.461Z,15.73
2018-08-20T06:23:44.307Z,13.53
2018-08-20T06:26:13.007Z,14.17
2018-08-20T06:28:41.723Z,14.33
2018-08-20T06:31:10.390Z,14.97
2018-08-20T06:33:39.101Z,14.30
2018-08-20T06:36:07.918Z,12.17
2018-08-20T06:38:36.549Z,13.57
2018-08-20T06:41:05.338Z,8.63
2018-08-20T06:43:33.983Z,8.20
2018-08-20T06:46:02.673Z,9.63
2018-08-20T06:48:32.099Z,9.70
2018-08-20T06:51:00.739Z,8.50
2018-08-20T06:53:29.542Z,10.93
2018-08-20T06:55:59.283Z,11.67
2018-08-20T06:58:28.761Z,11.33
2018-08-20T07:00:57.658Z,9.57
2018-08-20T07:03:26.409Z,9.67
2018-08-20T07:05:55.334Z,11.10
2018-08-20T07:08:24.036Z,7.77
2018-08-20T07:10:52.921Z,7.30
2018-08-20T07:13:29.718Z,7.57
2018-08-20T07:15:58.403Z,9.77
2018-08-20T07:18:27.322Z,6.13
2018-08-20T07:20:56.136Z,9.60
2018-08-20T07:23:24.953Z,5.90
2018-08-20T07:25:53.760Z,6.53
2018-08-20T07:28:22.614Z,7.20
2018-08-20T07:30:51.450Z,6.70
2018-08-20T07:33:20.318Z,8.53
2018-08-20T07:35:49.284Z,7.23
2018-08-20T07:38:18.150Z,7.70
2018-08-20T07:40:46.932Z,9.23
2018-08-20T07:43:15.636Z,7.10
2018-08-20T07:45:44.262Z,7.40
2018-08-20T07:48:12.993Z,6.13
2018-08-20T07:50:41.609Z,5.80
2018-08-20T07:53:10.339Z,5.93
2018-08-20T07:55:39.156Z,7.33
2018-08-20T07:58:08.882Z,4.97
2018-08-20T08:00:37.650Z,3.83
2018-08-20T08:03:06.318Z,3.57
2018-08-20T08:05:34.996Z,3.07
2018-08-20T08:08:03.699Z,4.17
2018-08-20T08:10:32.442Z,2.77
2018-08-20T08:13:01.155Z,6.43
2018-08-20T08:15:29.946Z,5.27
2018-08-20T08:17:58.706Z,2.93
2018-08-20T08:20:27.414Z,4.03
2018-08-20T08:22:56.223Z,2.33
2018-08-20T08:25:24.869Z,5.33
2018-08-20T08:27:53.682Z,2.70
2018-08-20T08:30:22.545Z,2.70
2018-08-20T08:32:51.407Z,5.27
2018-08-20T08:35:20.115Z,1.73
2018-08-20T08:37:48.878Z,3.33
2018-08-20T08:40:17.666Z,2.00
2018-08-20T08:42:46.345Z,2.50
2018-08-20T08:45:17.727Z,2.40
2018-08-20T08:47:53.045Z,1.50
2018-08-20T08:50:21.676Z,1.23
2018-08-20T08:52:50.332Z,1.67
2018-08-20T08:55:19.106Z,2.80
2018-08-20T08:57:47.800Z,3.10
2018-08-20T09:00:18.690Z,1.57
2018-08-20T09:02:47.506Z,1.00
2018-08-20T09:05:16.432Z,1.80
2018-08-20T09:07:45.212Z,2.70
2018-08-20T09:10:14.106Z,1.73
2018-08-20T09:12:42.867Z,1.50
2018-08-20T09:15:15.851Z,1.53
2018-08-20T09:17:44.952Z,2.77
2018-08-20T09:20:15.047Z,1.97
2018-08-20T09:22:43.924Z,2.43
2018-08-20T09:25:13.453Z,1.87
2018-08-20T09:27:43.072Z,1.93
2018-08-20T09:30:15.232Z,3.00
2018-08-20T09:32:44.536Z,1.77
2018-08-20T09:35:13.331Z,3.67
2018-08-20T09:37:42.136Z,2.43
2018-08-20T09:40:11.351Z,2.00
2018-08-20T09:42:40.842Z,2.50
2018-08-20T09:45:09.834Z,2.93
2018-08-20T09:47:39.632Z,2.63
2018-08-20T09:50:10.503Z,5.63
2018-08-20T09:52:39.260Z,3.20
2018-08-20T09:55:08.959Z,4.03
2018-08-20T09:57:37.676Z,2.73
2018-08-20T10:00:09.913Z,3.73
2018-08-20T10:02:38.632Z,2.70
2018-08-20T10:05:07.502Z,2.00
2018-08-20T10:07:36.249Z,2.43
2018-08-20T10:10:05.978Z,2.87
2018-08-20T10:12:34.628Z,3.43
2018-08-20T10:15:03.455Z,2.70
2018-08-20T10:17:32.167Z,3.77
2018-08-20T10:20:00.933Z,2.47
2018-08-20T10:22:29.613Z,3.13
2018-08-20T10:24:58.423Z,4.13
2018-08-20T10:27:27.078Z,2.03
2018-08-20T10:29:55.783Z,2.10
2018-08-20T10:32:24.521Z,1.97
2018-08-20T10:34:53.187Z,1.73
2018-08-20T10:37:22.141Z,1.90
2018-08-20T10:39:51.068Z,1.70
2018-08-20T10:42:19.990Z,0.80
2018-08-20T10:44:52.721Z,1.63
2018-08-20T10:47:21.859Z,1.43
2018-08-20T10:49:56.885Z,1.00
2018-08-20T10:52:25.656Z,1.00
2018-08-20T10:54:54.362Z,1.80
2018-08-20T10:57:23.235Z,1.00
2018-08-20T10:59:51.936Z,0.70
2018-08-20T11:02:20.645Z,0.63
2018-08-20T11:04:53.549Z,0.30
2018-08-20T11:07:22.414Z,1.13
2018-08-20T11:09:51.040Z,0.90
2018-08-20T11:12:19.945Z,0.27
2018-08-20T11:14:48.711Z,0.50
2018-08-20T11:17:17.490Z,0.50
2018-08-20T11:19:46.195Z,0.43
2018-08-20T11:22:14.933Z,0.40
2018-08-20T11:24:43.673Z,0.67
2018-08-20T11:27:12.399Z,1.10
2018-08-20T11:29:41.115Z,0.73
2018-08-20T11:32:10.091Z,0.97
2018-08-20T11:34:39.067Z,0.67
2018-08-20T11:37:07.979Z,0.40
2018-08-20T11:39:36.661Z,1.17
2018-08-20T11:42:05.799Z,0.60
2018-08-20T11:44:36.757Z,0.60
2018-08-20T11:47:05.473Z,1.13
2018-08-20T11:49:34.175Z,0.60
2018-08-20T11:52:02.887Z,3.40
2018-08-20T11:54:31.701Z,0.50
2018-08-20T11:57:00.472Z,1.33
2018-08-20T11:59:29.112Z,1.43
2018-08-20T12:01:58.084Z,0.30
2018-08-20T12:04:26.990Z,0.77
2018-08-20T12:06:55.740Z,0.80
2018-08-20T12:09:24.807Z,0.40
2018-08-20T12:11:53.542Z,1.03
2018-08-20T12:14:22.464Z,0.67
2018-08-20T12:16:51.449Z,0.87
2018-08-20T12:19:20.164Z,0.83
2018-08-20T12:21:48.826Z,0.67
2018-08-20T12:24:17.528Z,0.90
2018-08-20T12:26:46.412Z,0.87
2018-08-20T12:29:15.102Z,0.63
2018-08-20T12:31:43.820Z,0.60
2018-08-20T12:34:12.569Z,0.53
2018-08-20T12:36:41.468Z,1.53
2018-08-20T12:39:10.196Z,1.07
2018-08-20T12:41:38.992Z,0.90
2018-08-20T12:44:07.850Z,1.13
2018-08-20T12:46:36.553Z,1.30
2018-08-20T12:49:05.466Z,1.30
2018-08-20T12:51:34.432Z,1.00
2018-08-20T12:54:03.231Z,1.87
2018-08-20T12:56:31.896Z,1.20
2018-08-20T12:59:00.874Z,1.73
2018-08-20T13:01:29.646Z,2.00
2018-08-20T13:03:58.419Z,2.80
2018-08-20T13:06:27.252Z,1.50
2018-08-20T13:08:55.932Z,2.50
2018-08-20T13:11:24.648Z,2.63
2018-08-20T13:13:53.362Z,2.13
2018-08-20T13:16:22.196Z,2.77
2018-08-20T13:18:50.881Z,2.47
2018-08-20T13:21:19.606Z,4.13
2018-08-20T13:23:48.311Z,2.47
2018-08-20T13:26:17.165Z,3.93
2018-08-20T13:28:45.874Z,2.73
2018-08-20T13:31:14.717Z,2.43
2018-08-20T13:33:43.654Z,3.17
2018-08-20T13:36:12.384Z,2.70
2018-08-20T13:38:41.071Z,2.13
2018-08-20T13:41:09.812Z,2.90
2018-08-20T13:43:38.590Z,2.33
2018-08-20T13:46:07.422Z,2.77
2018-08-20T13:48:36.324Z,3.13
2018-08-20T13:51:05.022Z,2.40
2018-08-20T13:53:33.731Z,2.87
2018-08-20T13:56:02.439Z,2.43
2018-08-20T13:58:31.358Z,8.37
2018-08-20T14:01:00.292Z,4.03
2018-08-20T14:03:29.072Z,3.47
2018-08-20T14:05:57.843Z,4.43
2018-08-20T14:08:26.613Z,3.03
2018-08-20T14:10:55.338Z,2.50
2018-08-20T14:13:24.042Z,3.33
2018-08-20T14:15:52.959Z,2.23
2018-08-20T14:18:21.674Z,6.97
2018-08-20T14:21:01.463Z,2.50
2018-08-20T14:23:30.158Z,3.30
2018-08-20T14:25:58.865Z,3.80
2018-08-20T14:28:27.902Z,4.00
2018-08-20T14:30:56.614Z,2.37
2018-08-20T14:33:25.586Z,3.43
2018-08-20T14:35:54.440Z,2.10
2018-08-20T14:38:23.133Z,2.17
2018-08-20T14:40:51.831Z,1.27
2018-08-20T14:43:20.613Z,3.03
2018-08-20T14:45:54.587Z,3.90
2018-08-20T14:48:23.574Z,3.20
2018-08-20T14:50:52.478Z,2.07
2018-08-20T14:53:21.360Z,2.80
2018-08-20T14:55:50.116Z,4.77
2018-08-20T14:58:18.979Z,4.40
2018-08-20T15:00:47.831Z,2.80
2018-08-20T15:03:16.756Z,2.90
2018-08-20T15:05:45.613Z,3.00
2018-08-20T15:08:14.301Z,1.57
2018-08-20T15:10:43.234Z,2.53
2018-08-20T15:13:12.466Z,4.63
2018-08-20T15:15:41.507Z,4.43
2018-08-20T15:18:10.270Z,2.10
2018-08-20T15:20:39.152Z,1.77
2018-08-20T15:23:07.860Z,2.20
2018-08-20T15:25:36.893Z,1.70
2018-08-20T15:28:05.692Z,2.03
2018-08-20T15:30:34.410Z,2.97
2018-08-20T15:33:03.117Z,2.13
2018-08-20T15:35:31.842Z,3.27
2018-08-20T15:38:00.622Z,4.43
2018-08-20T15:40:29.282Z,1.87
2018-08-20T15:42:58.027Z,2.73
2018-08-20T15:45:26.941Z,4.50
2018-08-20T15:47:55.738Z,2.90
2018-08-20T15:50:24.493Z,4.00
2018-08-20T15:52:53.327Z,4.87
2018-08-20T15:55:28.511Z,3.70
2018-08-20T15:57:57.151Z,2.27
2018-08-20T16:00:25.940Z,3.07
2018-08-20T16:02:54.631Z,3.73
2018-08-20T16:05:23.630Z,3.07
2018-08-20T16:07:52.377Z,2.10
2018-08-20T16:10:21.108Z,3.50
2018-08-20T16:12:49.914Z,3.37
2018-08-20T16:15:18.642Z,4.47
2018-08-20T16:17:47.373Z,3.27
2018-08-20T16:20:16.056Z,3.73
2018-08-20T16:22:44.722Z,4.07
2018-08-20T16:25:13.474Z,1.60
2018-08-20T16:27:42.104Z,3.63
2018-08-20T16:30:12.892Z,5.03
2018-08-20T16:32:41.626Z,3.17
2018-08-20T16:35:12.344Z,3.43
2018-08-20T16:37:41.834Z,4.57
2018-08-20T16:40:10.551Z,5.43
2018-08-20T16:42:39.309Z,4.93
2018-08-20T16:45:09.152Z,2.57
2018-08-20T16:47:38.184Z,2.60
2018-08-20T16:50:08.806Z,1.93
2018-08-20T16:52:37.569Z,3.13
2018-08-20T16:55:07.317Z,3.17
2018-08-20T16:57:36.006Z,3.80
2018-08-20T17:00:07.225Z,1.33
2018-08-20T17:02:38.864Z,2.30
2018-08-20T17:05:08.602Z,2.90
2018-08-20T17:07:37.358Z,2.33
2018-08-20T17:10:07.440Z,2.60
2018-08-20T17:12:36.158Z,1.43
2018-08-20T17:15:08.354Z,3.80
2018-08-20T17:17:37.660Z,1.23
2018-08-20T17:20:07.125Z,1.27
2018-08-20T17:22:35.850Z,2.03
2018-08-20T17:25:05.320Z,1.30
2018-08-20T17:27:34.187Z,2.70
2018-08-20T17:30:02.966Z,2.50
2018-08-20T17:32:31.856Z,2.13
2018-08-20T17:35:00.552Z,1.27
2018-08-20T17:37:29.308Z,1.37
2018-08-20T17:40:00.470Z,1.80
2018-08-20T17:42:30.387Z,2.37
2018-08-20T17:44:59.864Z,3.73
2018-08-20T17:47:29.193Z,2.43
2018-08-20T17:49:58.899Z,2.20
2018-08-20T17:52:30.175Z,3.80
2018-08-20T17:55:01.978Z,4.20
2018-08-20T17:57:30.806Z,4.43
2018-08-20T18:01:06.028Z,6.27
2018-08-20T18:03:36.042Z,5.70
2018-08-20T18:06:07.184Z,3.87
2018-08-20T18:08:36.126Z,5.07
2018-08-20T18:11:05.880Z,3.93
2018-08-20T18:13:39.149Z,3.80
2018-08-20T18:16:09.365Z,5.37
2018-08-20T18:18:38.813Z,3.93
2018-08-20T18:21:07.630Z,5.00
2018-08-20T18:23:36.897Z,4.73
2018-08-20T18:26:05.725Z,10.37
2018-08-20T18:28:48.810Z,9.20
2018-08-20T18:31:22.101Z,6.93
2018-08-20T18:33:50.934Z,7.13
2018-08-20T18:36:21.880Z,7.63
2018-08-20T18:38:53.324Z,7.87
2018-08-20T18:41:31.800Z,5.10
2018-08-20T18:44:00.534Z,4.50
2018-08-20T18:46:29.329Z,5.83
2018-08-20T18:48:57.980Z,3.67
2018-08-20T18:51:26.736Z,5.27
2018-08-20T18:53:55.955Z,6.20
2018-08-20T18:56:24.676Z,2.27
2018-08-20T18:58:53.435Z,6.30
2018-08-20T19:01:22.215Z,3.90
2018-08-20T19:03:50.918Z,5.17
2018-08-20T19:06:20.558Z,3.03
2018-08-20T19:08:49.372Z,3.13
2018-08-20T19:11:18.140Z,3.47
2018-08-20T19:13:46.920Z,15.03
2018-08-20T19:16:26.924Z,5.93
2018-08-20T19:18:55.682Z,7.03
2018-08-20T19:21:26.594Z,4.67
2018-08-20T19:23:56.732Z,5.13
2018-08-20T19:26:26.406Z,5.30
2018-08-20T19:28:55.114Z,4.03
2018-08-20T19:31:23.847Z,5.10
2018-08-20T19:33:52.720Z,6.73
2018-08-20T19:36:23.043Z,2.40
2018-08-20T19:38:52.091Z,4.33
2018-08-20T19:41:20.843Z,3.80
2018-08-20T19:43:51.001Z,3.73
2018-08-20T19:46:28.827Z,3.20
2018-08-20T19:49:03.155Z,2.77
2018-08-20T19:51:34.337Z,6.73
2018-08-20T19:54:03.035Z,4.60
2018-08-20T19:56:32.032Z,3.40
2018-08-20T19:59:00.741Z,2.90
2018-08-20T20:01:29.470Z,6.27
2018-08-20T20:03:58.307Z,5.13
2018-08-20T20:06:28.312Z,3.17
2018-08-20T20:08:57.018Z,6.17
2018-08-20T20:11:30.734Z,4.57
2018-08-20T20:14:01.603Z,4.40
2018-08-20T20:16:37.813Z,4.13
2018-08-20T20:19:06.937Z,2.53
2018-08-20T20:21:36.262Z,3.63
2018-08-20T20:24:05.109Z,2.43
2018-08-20T20:26:33.888Z,3.87
2018-08-20T20:29:04.428Z,4.10
2018-08-20T20:31:33.293Z,4.50
2018-08-20T20:34:02.249Z,3.77
2018-08-20T20:36:31.988Z,1.93
2018-08-20T20:39:01.157Z,3.97
2018-08-20T20:41:29.873Z,4.50
2018-08-20T20:43:58.550Z,3.87
2018-08-20T20:46:27.257Z,5.17
2018-08-20T20:48:56.136Z,2.27
2018-08-20T20:51:24.878Z,2.73
2018-08-20T20:53:53.561Z,5.80
2018-08-20T20:56:22.250Z,3.20
2018-08-20T20:58:51.022Z,4.23
2018-08-20T21:01:19.724Z,7.57
2018-08-20T21:03:48.512Z,3.40
2018-08-20T21:06:17.440Z,4.43
2018-08-20T21:08:49.061Z,6.93
2018-08-20T21:11:19.471Z,7.37
2018-08-20T21:13:48.924Z,7.27
2018-08-20T21:16:21.320Z,5.77
2018-08-20T21:18:53.117Z,5.93
2018-08-20T21:21:22.543Z,4.67
2018-08-20T21:23:51.243Z,4.97
2018-08-20T21:26:20.152Z,6.03
2018-08-20T21:28:49.995Z,5.33
2018-08-20T21:31:20.216Z,3.33
2018-08-20T21:33:52.935Z,8.17
2018-08-20T21:36:21.636Z,3.97
2018-08-20T21:38:50.722Z,6.13
2018-08-20T21:41:27.559Z,7.23
2018-08-20T21:43:56.213Z,7.67
2018-08-20T21:46:24.963Z,8.00
2018-08-20T21:48:53.746Z,4.40
2018-08-20T21:51:27.643Z,4.90
2018-08-20T21:53:56.426Z,6.43
2018-08-20T21:56:26.137Z,6.27
2018-08-20T21:58:54.848Z,5.10
2018-08-20T22:01:23.681Z,5.77
2018-08-20T22:03:52.435Z,5.70
2018-08-20T22:06:21.189Z,6.07
2018-08-20T22:08:49.899Z,4.10
2018-08-20T22:11:18.621Z,6.43
2018-08-20T22:13:47.322Z,5.30
2018-08-20T22:16:19.627Z,3.33
2018-08-20T22:18:53.459Z,5.40
2018-08-20T22:21:22.213Z,5.30
2018-08-20T22:23:50.918Z,5.53
2018-08-20T22:26:20.914Z,4.03
2018-08-20T22:28:51.469Z,5.00
2018-08-20T22:31:20.567Z,7.23
2018-08-20T22:33:56.661Z,5.77
2018-08-20T22:36:25.979Z,4.97
2018-08-20T22:38:58.949Z,4.60
2018-08-20T22:41:28.837Z,4.53
2018-08-20T22:43:57.673Z,4.50
2018-08-20T22:46:26.838Z,5.27
2018-08-20T22:48:57.407Z,4.93
2018-08-20T22:51:27.272Z,6.13
2018-08-20T22:53:57.345Z,4.10
2018-08-20T22:56:29.609Z,4.40
2018-08-20T22:59:00.989Z,5.80
2018-08-20T23:01:29.777Z,5.63
2018-08-20T23:03:58.570Z,4.93
2018-08-20T23:06:27.297Z,5.83
2018-08-20T23:08:56.118Z,5.60
2018-08-20T23:11:38.005Z,5.67
2018-08-20T23:14:08.493Z,6.00
2018-08-20T23:16:37.593Z,4.73
2018-08-20T23:19:06.413Z,7.67
2018-08-20T23:21:39.426Z,4.47
2018-08-20T23:24:08.359Z,6.33
2018-08-20T23:26:37.020Z,3.97
2018-08-20T23:29:06.050Z,4.37
2018-08-20T23:31:35.049Z,5.60
2018-08-20T23:34:04.320Z,3.27
2018-08-20T23:36:32.999Z,5.03
2018-08-20T23:39:01.689Z,2.80
2018-08-20T23:41:30.435Z,4.47
2018-08-20T23:43:59.187Z,6.77
2018-08-20T23:46:32.651Z,5.80
2018-08-20T23:49:02.175Z,4.03
2018-08-20T23:51:31.010Z,3.87
2018-08-20T23:53:59.897Z,5.37
2018-08-20T23:56:28.587Z,5.50
2018-08-20T23:58:57.533Z,5.20
